Time;durP1;ratioP1;P1;durP2;ratioP2;P2;SDS_P1;SDS_P2;PMS_P1;PMS_P2;Temp;Humidity;BMP_temperature;BMP_pressure;BME280_temperature;BME280_humidity;BME280_pressure;Samples;Min_cycle;Max_cycle;Signal;HPM_P1;HPM_P2
2023/06/17 00:01:50;;;;;;;0.30;0.30;;;;;;;16.96;53.31;98866.94;4990376;28;20460;-79
2023/06/17 00:04:17;;;;;;;0.30;0.30;;;;;;;16.93;53.37;98876.50;4989537;28;20516;-81
2023/06/17 00:28:55;;;;;;;0.30;0.30;;;;;;;16.41;55.37;98876.19;5703533;23;20105;-82
2023/06/17 00:31:24;;;;;;;0.40;0.40;;;;;;;16.29;55.77;98867.56;4817133;29;20054;-82
2023/06/17 00:33:53;;;;;;;0.40;0.40;;;;;;;16.34;55.72;98885.78;4822762;29;20051;-80
2023/06/17 00:36:26;;;;;;;0.30;0.30;;;;;;;16.34;56.46;98885.78;4807202;29;20061;-82
2023/06/17 00:39:18;;;;;;;0.30;0.30;;;;;;;16.35;56.44;98890.91;4823743;29;20058;-81
2023/06/17 00:42:39;;;;;;;0.30;0.30;;;;;;;16.23;56.28;98885.84;4848319;29;20075;-82
2023/06/17 00:45:07;;;;;;;0.30;0.30;;;;;;;16.22;56.32;98886.94;4839228;29;20474;-82
2023/06/17 00:47:35;;;;;;;0.40;0.40;;;;;;;16.19;56.68;98889.44;4823293;29;20099;-80
2023/06/17 00:50:09;;;;;;;0.30;0.30;;;;;;;16.15;57.05;98888.34;4808622;29;20057;-81
2023/06/17 00:52:40;;;;;;;0.40;0.40;;;;;;;16.15;56.98;98889.16;4822509;29;20061;-81
2023/06/17 00:55:11;;;;;;;0.30;0.30;;;;;;;16.16;57.01;98895.44;4823011;29;20082;-82
2023/06/17 00:57:42;;;;;;;0.40;0.40;;;;;;;16.12;57.00;98889.75;4822400;29;20085;-81
2023/06/17 01:00:18;;;;;;;;;;;;;;;16.11;56.69;98896.28;4837833;29;20061;-82
2023/06/17 01:02:51;;;;;;;0.40;0.40;;;;;;;16.08;56.99;98893.31;4822251;29;19928;-81
2023/06/17 01:05:28;;;;;;;0.40;0.40;;;;;;;16.02;56.63;98887.91;4822255;29;20061;-81
2023/06/17 01:08:19;;;;;;;0.40;0.40;;;;;;;16.11;56.31;98887.31;4822163;29;20110;-81
2023/06/17 01:10:54;;;;;;;0.40;0.40;;;;;;;16.11;56.40;98892.75;4822021;29;20143;-81
2023/06/17 01:13:29;;;;;;;0.30;0.30;;;;;;;16.11;56.05;98890.03;4806757;29;20096;-80
2023/06/17 01:16:02;;;;;;;0.35;0.35;;;;;;;16.12;55.91;98891.66;4822938;29;20053;-81
2023/06/17 01:18:33;;;;;;;0.40;0.40;;;;;;;16.10;56.12;98888.41;4823120;29;20054;-82
2023/06/17 01:21:04;;;;;;;0.30;0.30;;;;;;;16.10;56.46;98896.56;4841822;29;20061;-82
2023/06/17 01:23:37;;;;;;;0.30;0.30;;;;;;;16.08;56.77;98887.84;4842626;29;20132;-83
2023/06/17 01:26:09;;;;;;;0.30;0.30;;;;;;;16.10;56.79;98891.13;4826535;29;20077;-82
2023/06/17 01:28:40;;;;;;;0.30;0.30;;;;;;;16.09;56.73;98889.50;4826818;29;20058;-81
2023/06/17 01:31:18;;;;;;;0.35;0.35;;;;;;;16.12;56.42;98887.00;4824890;29;20075;-82
2023/06/17 01:33:50;;;;;;;0.40;0.40;;;;;;;16.14;56.39;98889.47;4826708;29;20062;-82
2023/06/17 05:58:59;;;;;;;0.30;0.30;;;;;;;23.73;36.34;98941.69;5513238;24;20058;-82
2023/06/17 06:01:39;;;;;;;0.30;0.30;;;;;;;23.57;35.70;98924.09;4804085;29;20053;-84
2023/06/17 06:04:09;;;;;;;0.30;0.30;;;;;;;23.73;36.09;98944.44;4781354;29;20059;-82
2023/06/17 06:06:37;;;;;;;0.20;0.20;;;;;;;23.83;35.52;98947.97;4811489;29;20528;-81
2023/06/17 06:09:05;;;;;;;0.20;0.20;;;;;;;23.80;35.04;98935.63;4803455;29;20115;-81
2023/06/17 06:11:34;;;;;;;0.25;0.25;;;;;;;23.83;35.16;98939.69;4814907;29;20126;-80
2023/06/17 06:14:13;;;;;;;0.25;0.25;;;;;;;23.95;35.10;98937.00;4813134;29;20204;-80
2023/06/17 06:16:48;;;;;;;0.20;0.20;;;;;;;23.84;35.04;98913.75;4806005;29;20050;-80
2023/06/17 06:19:16;;;;;;;0.20;0.20;;;;;;;24.12;35.11;98927.81;4812657;29;20054;-81
2023/06/17 06:21:43;;;;;;;0.30;0.30;;;;;;;24.23;35.23;98924.31;4814769;29;20105;-81
2023/06/17 06:24:11;;;;;;;0.20;0.20;;;;;;;24.23;35.63;98921.56;4786366;29;20127;-81
2023/06/17 06:26:40;;;;;;;0.30;0.30;;;;;;;24.25;35.06;98928.69;4770977;29;20061;-82
2023/06/17 06:29:10;;;;;;;0.25;0.25;;;;;;;24.24;34.81;98933.38;4803372;29;20058;-80
2023/06/17 06:31:37;;;;;;;0.20;0.20;;;;;;;24.34;34.55;98941.25;4805035;29;20054;-82
2023/06/17 06:34:07;;;;;;;0.20;0.20;;;;;;;24.39;33.66;98941.03;4811807;29;20195;-81
2023/06/17 06:36:37;;;;;;;0.20;0.20;;;;;;;24.41;33.91;98951.75;4812154;29;20477;-81
2023/06/17 06:39:04;;;;;;;0.20;0.20;;;;;;;24.20;33.20;98913.94;4842517;29;20053;-82
2023/06/17 06:41:31;;;;;;;0.22;0.22;;;;;;;24.13;34.23;98919.22;4819481;29;20723;-82
2023/06/17 06:44:19;;;;;;;0.20;0.20;;;;;;;24.34;32.96;98940.44;4826140;29;20134;-81
2023/06/17 06:46:49;;;;;;;0.20;0.20;;;;;;;24.46;32.60;98943.31;4828191;29;20085;-82
2023/06/17 06:49:17;;;;;;;0.20;0.20;;;;;;;24.58;33.42;98951.59;4812924;29;20066;-82
2023/06/17 06:52:03;;;;;;;0.20;0.20;;;;;;;24.68;33.15;98947.63;4834330;29;20531;-83
2023/06/17 06:54:31;;;;;;;0.20;0.20;;;;;;;24.68;31.72;98944.06;4815311;29;20145;-81
2023/06/17 06:56:59;;;;;;;0.20;0.20;;;;;;;24.77;31.89;98942.81;4826943;29;20050;-83
2023/06/17 06:59:26;;;;;;;0.22;0.22;;;;;;;24.71;31.94;98944.16;4819416;29;20094;-81
2023/06/17 07:01:54;;;;;;;0.20;0.20;;;;;;;24.82;30.74;98950.09;4829508;29;20105;-81
2023/06/17 07:04:22;;;;;;;0.20;0.20;;;;;;;24.67;31.46;98939.69;4820101;29;20118;-81
2023/06/17 07:06:55;;;;;;;0.20;0.20;;;;;;;24.74;30.66;98931.66;4801305;29;20540;-82
2023/06/17 07:09:27;;;;;;;0.20;0.20;;;;;;;24.92;30.87;98944.13;4815892;29;20107;-81
2023/06/17 07:11:55;;;;;;;0.20;0.20;;;;;;;25.07;30.11;98943.47;4791508;29;20049;-80
2023/06/17 07:14:23;;;;;;;0.20;0.20;;;;;;;25.30;29.97;98937.56;4817459;29;20548;-83
2023/06/17 07:16:51;;;;;;;0.20;0.20;;;;;;;25.28;29.92;98928.81;4797036;29;20497;-82
2023/06/17 07:19:20;;;;;;;0.20;0.20;;;;;;;25.48;30.15;98941.69;4808071;29;20058;-80
2023/06/17 07:21:48;;;;;;;0.20;0.20;;;;;;;25.47;29.68;98942.88;4799005;29;20050;-79
2023/06/17 07:24:20;;;;;;;0.20;0.20;;;;;;;25.34;29.55;98943.19;4797407;29;20410;-80
2023/06/17 07:26:47;;;;;;;0.20;0.20;;;;;;;25.41;30.14;98935.13;4825270;29;20487;-80
2023/06/17 07:29:15;;;;;;;0.20;0.20;;;;;;;25.50;29.89;98935.84;4817119;29;20050;-80
2023/06/17 07:31:43;;;;;;;0.20;0.20;;;;;;;25.47;30.36;98937.34;4830091;29;20050;-79
2023/06/17 07:34:30;;;;;;;0.20;0.20;;;;;;;25.66;29.64;98938.69;4806729;29;20054;-80
2023/06/17 07:37:16;;;;;;;0.20;0.20;;;;;;;25.85;29.24;98941.72;4822486;29;20080;-80
2023/06/17 07:39:47;;;;;;;0.20;0.20;;;;;;;26.00;28.92;98940.16;4834352;29;20066;-82
2023/06/17 07:42:19;;;;;;;0.20;0.20;;;;;;;26.03;28.87;98942.25;4839480;29;21070;-81
2023/06/17 07:44:46;;;;;;;0.20;0.20;;;;;;;26.07;29.14;98943.16;4829611;29;20536;-82
2023/06/17 07:47:13;;;;;;;0.20;0.20;;;;;;;26.19;28.79;98949.81;4838877;29;20678;-82
2023/06/17 07:49:41;;;;;;;0.30;0.30;;;;;;;26.46;28.39;98942.69;4823357;29;20058;-84
2023/06/17 07:52:09;;;;;;;0.20;0.20;;;;;;;26.74;27.91;98934.41;4819974;29;20076;-81
2023/06/17 07:54:41;;;;;;;0.20;0.20;;;;;;;26.73;28.13;98941.09;4817916;29;20046;-81
2023/06/17 07:57:08;;;;;;;0.30;0.30;;;;;;;26.70;28.05;98939.84;4831139;29;20060;-80
2023/06/17 07:59:36;;;;;;;0.30;0.30;;;;;;;26.95;27.45;98948.03;4833465;29;20054;-81
2023/06/17 08:02:04;;;;;;;0.20;0.20;;;;;;;26.83;27.14;98937.81;4813620;29;20050;-83
2023/06/17 08:04:35;;;;;;;0.30;0.30;;;;;;;26.91;27.46;98944.34;4839992;29;20761;-82
2023/06/17 08:07:06;;;;;;;0.30;0.30;;;;;;;27.20;27.52;98946.72;4831878;29;20535;-80
2023/06/17 08:09:35;;;;;;;0.30;0.30;;;;;;;27.60;27.51;98956.81;4821027;29;20046;-82
2023/06/17 08:12:03;;;;;;;0.30;0.30;;;;;;;27.78;26.58;98948.13;4838430;29;20501;-78
2023/06/17 08:14:30;;;;;;;0.30;0.30;;;;;;;27.78;26.93;98948.13;4828614;29;20138;-80
2023/06/17 08:16:58;;;;;;;0.20;0.20;;;;;;;27.71;26.91;98956.28;4807000;29;20065;-82
2023/06/17 08:19:25;;;;;;;0.20;0.20;;;;;;;27.25;27.30;98953.97;4831031;29;20058;-80
2023/06/17 08:21:52;;;;;;;0.20;0.20;;;;;;;26.83;27.87;98950.84;4838114;29;20070;-81
2023/06/17 08:24:22;;;;;;;0.20;0.20;;;;;;;26.64;28.44;98951.50;4838373;29;20057;-85
2023/06/17 08:26:51;;;;;;;0.30;0.30;;;;;;;27.20;27.93;98949.50;4833116;29;20060;-82
2023/06/17 08:29:19;;;;;;;0.20;0.20;;;;;;;27.67;27.20;98945.09;4806970;29;20069;-82
2023/06/17 08:31:51;;;;;;;0.20;0.20;;;;;;;27.68;27.45;98943.94;4825656;29;20141;-83
2023/06/17 08:34:24;;;;;;;0.20;0.20;;;;;;;27.36;27.67;98945.94;4827720;29;20082;-81
2023/06/17 08:36:54;;;;;;;0.20;0.20;;;;;;;27.48;27.24;98951.38;4835391;29;20078;-83
2023/06/17 08:39:21;;;;;;;0.20;0.20;;;;;;;27.57;26.79;98927.03;4838731;29;20054;-83
2023/06/17 08:41:52;;;;;;;0.20;0.20;;;;;;;27.50;26.87;98940.75;4838926;29;20060;-81
2023/06/17 08:44:21;;;;;;;0.20;0.20;;;;;;;27.36;26.62;98957.00;4816547;29;20060;-81
2023/06/17 08:46:51;;;;;;;0.30;0.30;;;;;;;27.43;26.90;98943.34;4809573;29;20100;-81
2023/06/17 08:49:19;;;;;;;0.30;0.30;;;;;;;28.17;26.79;98951.00;4830185;29;20548;-81
2023/06/17 08:51:50;;;;;;;0.20;0.20;;;;;;;28.29;26.34;98942.53;4820574;29;20433;-81
2023/06/17 08:54:19;;;;;;;0.20;0.20;;;;;;;28.03;26.77;98957.84;4806211;29;20274;-82
2023/06/17 08:56:46;;;;;;;0.20;0.20;;;;;;;27.86;27.08;98942.41;4820646;29;20054;-81
2023/06/17 08:59:13;;;;;;;0.30;0.30;;;;;;;27.97;26.87;98959.28;4837016;29;20534;-81
2023/06/17 09:01:42;;;;;;;0.13;0.13;;;;;;;28.23;27.01;98941.19;4840748;29;20053;-82
2023/06/17 09:04:10;;;;;;;0.20;0.20;;;;;;;28.17;26.76;98951.00;4850030;29;20070;-82
2023/06/17 09:06:41;;;;;;;0.20;0.20;;;;;;;28.35;26.94;98941.06;4831407;29;20573;-82
2023/06/17 09:09:08;;;;;;;0.20;0.20;;;;;;;28.95;25.69;98941.47;4830967;29;20420;-82
2023/06/17 09:11:35;;;;;;;0.20;0.20;;;;;;;29.59;25.26;98949.31;4831127;29;20054;-82
2023/06/17 09:14:03;;;;;;;0.20;0.20;;;;;;;29.42;25.38;98947.84;4832592;29;20103;-81
2023/06/17 09:16:34;;;;;;;0.20;0.20;;;;;;;29.00;25.69;98939.56;4838766;29;20050;-82
2023/06/17 09:19:14;;;;;;;0.20;0.20;;;;;;;28.86;26.22;98943.69;4522370;29;10001194;-80
2023/06/17 09:21:46;;;;;;;0.30;0.30;;;;;;;28.95;25.40;98951.78;4818487;29;20284;-81
2023/06/17 09:24:13;;;;;;;0.20;0.20;;;;;;;29.14;25.27;98937.88;4801401;29;20537;-80
2023/06/17 09:26:42;;;;;;;0.20;0.20;;;;;;;29.29;24.89;98944.47;4812033;29;20120;-81
2023/06/17 09:29:14;;;;;;;0.30;0.30;;;;;;;30.23;24.20;98941.13;4829111;29;20149;-80
2023/06/17 09:31:48;;;;;;;0.30;0.30;;;;;;;31.38;23.17;98945.19;4838635;29;20072;-80
2023/06/17 09:34:16;;;;;;;0.40;0.40;;;;;;;32.07;22.19;98939.72;4835815;29;20096;-81
2023/06/17 09:36:43;;;;;;;0.40;0.40;;;;;;;32.62;22.02;98929.63;4831193;29;20078;-81
2023/06/17 09:39:13;;;;;;;0.30;0.30;;;;;;;33.10;21.15;98932.16;4801803;29;20138;-82
2023/06/17 09:41:48;;;;;;;0.40;0.40;;;;;;;33.44;21.06;98947.31;4822183;29;20414;-81
2023/06/17 09:44:38;;;;;;;0.38;0.38;;;;;;;34.10;20.74;98935.66;4823280;29;20058;-80
2023/06/17 09:47:08;;;;;;;0.40;0.40;;;;;;;34.48;20.24;98924.72;4822474;29;20058;-82
2023/06/17 09:49:39;;;;;;;0.30;0.30;;;;;;;34.81;19.78;98932.97;4822669;29;20110;-80
2023/06/17 09:52:08;;;;;;;0.30;0.30;;;;;;;34.94;19.34;98931.28;4822575;29;20058;-82
2023/06/17 09:54:36;;;;;;;0.10;0.10;;;;;;;33.34;20.69;98938.94;4821714;29;20050;-82
2023/06/17 09:57:26;;;;;;;0.10;0.10;;;;;;;32.07;21.75;98944.53;4822970;29;20828;-79
2023/06/17 09:59:57;;;;;;;0.10;0.10;;;;;;;31.04;22.95;98940.53;4825852;29;20144;-82
2023/06/17 10:02:25;;;;;;;0.10;0.10;;;;;;;30.55;23.59;98930.41;4825684;29;20490;-81
2023/06/17 10:04:53;;;;;;;0.10;0.10;;;;;;;30.23;24.02;98921.63;4841621;29;20057;-82
2023/06/17 10:07:25;;;;;;;0.10;0.10;;;;;;;29.99;24.12;98922.94;4825593;29;20072;-80
2023/06/17 10:09:52;;;;;;;0.20;0.20;;;;;;;30.46;23.50;98943.81;4841139;29;20054;-82
2023/06/17 10:12:24;;;;;;;0.20;0.20;;;;;;;31.08;22.64;98935.75;4814979;29;20767;-81
2023/06/17 10:15:10;;;;;;;0.30;0.30;;;;;;;31.81;22.00;98926.81;4815515;29;20050;-81
2023/06/17 10:17:38;;;;;;;0.28;0.28;;;;;;;32.78;21.38;98938.44;4811566;29;20156;-81
2023/06/17 10:20:18;;;;;;;0.30;0.30;;;;;;;33.57;21.18;98938.53;4816352;29;20112;-82
2023/06/17 10:22:47;;;;;;;0.20;0.20;;;;;;;32.93;21.03;98945.66;4823207;29;20064;-83
2023/06/17 10:25:16;;;;;;;0.10;0.10;;;;;;;31.83;21.87;98934.75;4819960;29;20046;-82
2023/06/17 10:27:45;;;;;;;0.10;0.10;;;;;;;31.16;22.93;98944.19;4815985;29;20108;-80
2023/06/17 10:30:26;;;;;;;0.20;0.20;;;;;;;31.02;23.22;98942.88;4814334;29;20050;-83
2023/06/17 10:32:56;;;;;;;0.35;0.35;;;;;;;32.24;22.11;98943.81;4821140;29;20073;-81
2023/06/17 10:35:39;;;;;;;0.30;0.30;;;;;;;33.43;20.85;98933.75;4822581;29;20166;-80
2023/06/17 10:38:27;;;;;;;0.30;0.30;;;;;;;34.32;20.06;98927.19;4797799;29;20061;-81
2023/06/17 10:40:54;;;;;;;0.30;0.30;;;;;;;35.25;19.40;98935.09;4829591;29;20058;-82
2023/06/17 10:43:25;;;;;;;0.30;0.30;;;;;;;35.87;18.31;98944.56;4809990;29;20165;-81
2023/06/17 10:46:30;;;;;;;0.30;0.30;;;;;;;35.96;18.40;98939.28;4825750;29;20049;-82
2023/06/17 10:49:00;;;;;;;0.20;0.20;;;;;;;35.15;18.72;98922.75;4829858;29;20152;-81
2023/06/17 10:51:29;;;;;;;0.10;0.10;;;;;;;33.77;20.00;98936.13;4816012;29;20082;-81
2023/06/17 10:54:15;;;;;;;0.20;0.20;;;;;;;33.34;20.34;98925.75;4822027;29;20077;-82
2023/06/17 10:57:01;;;;;;;0.30;0.30;;;;;;;34.81;19.13;98921.75;4826863;29;20045;-83
2023/06/17 10:59:30;;;;;;;0.30;0.30;;;;;;;35.45;19.20;98928.91;4820731;29;20069;-83
2023/06/17 11:02:02;;;;;;;0.20;0.20;;;;;;;35.93;18.87;98925.25;4832336;29;20102;-82
2023/06/17 11:04:36;;;;;;;0.30;0.30;;;;;;;35.67;19.13;98923.94;4826087;29;20100;-82
2023/06/17 11:07:15;;;;;;;0.30;0.30;;;;;;;36.44;18.49;98915.84;4814456;29;20102;-83
2023/06/17 11:09:43;;;;;;;0.40;0.40;;;;;;;37.03;17.55;98922.25;4832481;29;20054;-84
2023/06/17 11:12:10;;;;;;;0.30;0.30;;;;;;;36.99;17.61;98933.56;4806040;29;20058;-81
2023/06/17 11:14:40;;;;;;;0.30;0.30;;;;;;;37.23;16.91;98925.19;4829858;29;20049;-82
2023/06/17 11:17:08;;;;;;;0.38;0.38;;;;;;;36.91;17.63;98918.00;4821112;29;20046;-83
2023/06/17 11:19:35;;;;;;;0.30;0.30;;;;;;;36.40;18.00;98920.72;4823357;29;20081;-82
2023/06/17 11:22:07;;;;;;;0.30;0.30;;;;;;;36.59;17.98;98933.34;4839395;29;20554;-84
2023/06/17 11:24:35;;;;;;;0.10;0.10;;;;;;;35.95;18.35;98928.44;4822963;29;20045;-84
2023/06/17 11:27:05;;;;;;;0.30;0.30;;;;;;;35.48;19.25;98937.31;4839825;29;20058;-83
2023/06/17 11:29:32;;;;;;;0.10;0.10;;;;;;;35.33;19.27;98938.66;4839551;29;20095;-83
2023/06/17 11:32:01;;;;;;;0.20;0.20;;;;;;;34.39;19.65;98938.38;4838077;29;20536;-83
2023/06/17 11:34:31;;;;;;;0.10;0.10;;;;;;;34.23;19.90;98941.63;4838775;29;20114;-83
2023/06/17 11:37:06;;;;;;;0.17;0.17;;;;;;;33.41;20.39;98930.53;4836036;29;20064;-82
2023/06/17 11:39:37;;;;;;;0.10;0.10;;;;;;;32.50;21.76;98927.97;4833696;29;20140;-83
2023/06/17 11:42:06;;;;;;;0.10;0.10;;;;;;;31.82;22.39;98924.81;4827733;29;20200;-84
2023/06/17 11:44:35;;;;;;;0.30;0.30;;;;;;;32.05;22.51;98914.19;4805711;29;20106;-81
2023/06/17 11:47:04;;;;;;;0.40;0.40;;;;;;;32.87;21.45;98915.69;4831814;29;20050;-83
2023/06/17 11:49:31;;;;;;;0.30;0.30;;;;;;;34.35;20.15;98920.78;4837286;29;20066;-82
2023/06/17 11:52:09;;;;;;;0.30;0.30;;;;;;;35.46;19.19;98934.13;4821898;29;20088;-83
2023/06/17 11:54:45;;;;;;;0.30;0.30;;;;;;;36.91;17.73;98915.19;4822818;29;20097;-84
2023/06/17 11:57:23;;;;;;;0.40;0.40;;;;;;;38.23;16.60;98923.38;4822648;29;20050;-84
2023/06/17 12:00:00;;;;;;;0.20;0.20;;;;;;;38.25;15.99;98925.78;4824570;29;20066;-84
2023/06/17 12:02:29;;;;;;;0.20;0.20;;;;;;;37.40;16.83;98924.09;4819721;29;20050;-83
2023/06/17 12:05:01;;;;;;;0.30;0.30;;;;;;;37.19;16.76;98918.81;4813938;29;20428;-84
2023/06/17 12:07:38;;;;;;;0.30;0.30;;;;;;;37.22;16.76;98929.22;4819858;29;20053;-83
2023/06/17 12:10:06;;;;;;;0.40;0.40;;;;;;;36.99;16.75;98932.75;4831085;29;20077;-82
2023/06/17 12:15:33;;;;;;;0.40;0.40;;;;;;;37.82;16.03;98927.38;4821931;29;20064;-83
2023/06/17 12:18:10;;;;;;;0.30;0.30;;;;;;;38.71;15.62;98916.31;4804059;29;20054;-83
2023/06/17 12:20:48;;;;;;;0.30;0.30;;;;;;;39.29;14.98;98918.59;4808582;29;20046;-82
2023/06/17 12:23:18;;;;;;;0.30;0.30;;;;;;;39.49;14.94;98915.72;4810553;29;20077;-83
2023/06/17 12:25:46;;;;;;;0.30;0.30;;;;;;;39.91;14.74;98926.31;4804979;29;20067;-83
2023/06/17 12:28:16;;;;;;;0.30;0.30;;;;;;;39.99;14.82;98931.34;4791855;29;20049;-82
2023/06/17 12:31:02;;;;;;;0.30;0.30;;;;;;;40.20;14.13;98912.97;4790207;29;20078;-83
2023/06/17 12:33:29;;;;;;;0.30;0.30;;;;;;;39.78;15.21;98920.59;4807737;29;20061;-82
2023/06/17 12:35:57;;;;;;;0.30;0.30;;;;;;;39.78;15.17;98910.13;4828594;29;20051;-82
2023/06/17 12:38:28;;;;;;;0.20;0.20;;;;;;;39.23;15.25;98903.44;4826373;29;20058;-82
2023/06/17 12:41:02;;;;;;;0.20;0.20;;;;;;;37.75;16.15;98893.72;4838813;29;20831;-82
2023/06/17 12:43:29;;;;;;;0.20;0.20;;;;;;;37.24;16.47;98915.53;4839007;29;20140;-81
2023/06/17 12:46:17;;;;;;;0.10;0.10;;;;;;;35.93;17.32;98920.47;4829097;29;20057;-82
2023/06/17 12:48:47;;;;;;;0.10;0.10;;;;;;;34.16;18.77;98913.66;4832492;29;20537;-81
2023/06/17 12:51:15;;;;;;;0.10;0.10;;;;;;;33.11;19.75;98917.75;4814522;29;20080;-82
2023/06/17 12:53:42;;;;;;;0.10;0.10;;;;;;;32.04;21.09;98917.41;4833677;29;20165;-81
2023/06/17 12:56:09;;;;;;;0.10;0.10;;;;;;;31.37;22.00;98901.75;4835982;29;20431;-82
2023/06/17 12:58:36;;;;;;;0.10;0.10;;;;;;;31.01;21.99;98913.41;4837471;29;20057;-83
2023/06/17 13:01:06;;;;;;;0.10;0.10;;;;;;;30.62;22.64;98915.78;4814170;29;20471;-82
2023/06/17 13:03:36;;;;;;;0.10;0.10;;;;;;;30.44;23.13;98910.81;4837081;29;20511;-83
2023/06/17 13:06:04;;;;;;;0.10;0.10;;;;;;;30.08;23.64;98909.53;4498465;29;10000413;-82
2023/06/17 13:08:31;;;;;;;0.10;0.10;;;;;;;30.00;23.78;98911.41;4815985;29;20057;-83
2023/06/17 13:13:44;;;;;;;0.10;0.10;;;;;;;30.25;24.10;98905.38;4823631;29;20053;-85
2023/06/17 13:16:11;;;;;;;0.10;0.10;;;;;;;30.21;23.63;98910.91;4807766;29;20051;-82
2023/06/17 13:18:38;;;;;;;0.10;0.10;;;;;;;30.34;23.56;98903.13;4828870;29;20058;-82
2023/06/17 13:21:06;;;;;;;0.10;0.10;;;;;;;30.38;23.38;98909.53;4832526;29;20074;-82
2023/06/17 13:23:33;;;;;;;0.20;0.20;;;;;;;30.82;22.58;98894.94;4807444;29;20528;-83
2023/06/17 13:26:00;;;;;;;0.20;0.20;;;;;;;31.34;22.05;98892.19;4833356;29;20050;-84
2023/06/17 13:28:33;;;;;;;0.35;0.35;;;;;;;32.77;21.09;98887.34;4793075;29;20065;-83
2023/06/17 13:31:01;;;;;;;0.40;0.40;;;;;;;34.81;19.42;98888.91;4838215;29;20106;-83
2023/06/17 13:33:29;;;;;;;0.30;0.30;;;;;;;36.23;18.00;98863.56;4834580;29;20776;-83
2023/06/17 13:35:56;;;;;;;0.20;0.20;;;;;;;36.24;17.00;98879.19;4836452;29;20070;-84
2023/06/17 13:38:25;;;;;;;0.20;0.20;;;;;;;35.74;17.58;98893.00;4822574;29;20149;-84
2023/06/17 13:40:52;;;;;;;0.20;0.20;;;;;;;34.89;18.14;98870.03;4838347;29;20061;-84
2023/06/17 13:43:19;;;;;;;0.30;0.30;;;;;;;35.04;18.26;98873.53;4813638;29;20059;-85
2023/06/17 13:45:47;;;;;;;0.30;0.30;;;;;;;35.48;17.85;98886.00;4838134;29;20050;-85
2023/06/17 13:48:14;;;;;;;0.30;0.30;;;;;;;35.89;17.63;98890.81;4835807;29;20517;-81
2023/06/17 13:50:41;;;;;;;0.20;0.20;;;;;;;36.49;17.55;98886.50;4820292;29;20052;-85
2023/06/17 13:53:09;;;;;;;0.20;0.20;;;;;;;36.81;17.27;98896.47;4813271;29;20058;-83
2023/06/17 13:55:37;;;;;;;0.20;0.20;;;;;;;36.38;17.60;98894.25;4819164;29;20674;-83
2023/06/17 13:58:04;;;;;;;0.30;0.30;;;;;;;36.23;17.22;98888.03;4819895;29;20103;-85
2023/06/17 14:00:31;;;;;;;0.20;0.20;;;;;;;36.30;17.05;98892.75;4820202;29;20062;-82
2023/06/17 14:02:58;;;;;;;0.20;0.20;;;;;;;36.40;17.35;98901.03;4822854;29;20053;-81
2023/06/17 14:05:26;;;;;;;0.20;0.20;;;;;;;36.31;17.19;98885.91;4815100;29;20058;-83
2023/06/17 14:07:53;;;;;;;0.20;0.20;;;;;;;36.45;16.91;98886.53;4823327;29;20062;-82
2023/06/17 14:10:24;;;;;;;0.20;0.20;;;;;;;36.17;17.19;98898.94;4841194;29;20075;-84
2023/06/17 14:12:51;;;;;;;0.20;0.20;;;;;;;35.84;17.39;98889.25;4841102;29;20077;-83
2023/06/17 14:15:18;;;;;;;0.20;0.20;;;;;;;35.76;17.30;98899.78;4839258;29;20058;-84
2023/06/17 14:17:45;;;;;;;0.20;0.20;;;;;;;35.49;17.42;98901.63;4831969;29;20068;-83
2023/06/17 14:20:32;;;;;;;0.20;0.20;;;;;;;35.73;17.55;98900.63;4791438;29;20082;-82
2023/06/17 14:23:00;;;;;;;0.20;0.20;;;;;;;36.11;17.11;98886.59;4822786;29;20141;-82
2023/06/17 14:25:27;;;;;;;0.20;0.20;;;;;;;36.14;17.22;98899.78;4839330;29;20144;-84
2023/06/17 14:27:54;;;;;;;0.10;0.10;;;;;;;35.06;17.79;98894.34;4832205;29;20145;-85
2023/06/17 14:30:48;;;;;;;0.10;0.10;;;;;;;34.00;18.60;98902.06;4832774;29;20061;-84
2023/06/17 14:33:17;;;;;;;0.20;0.20;;;;;;;33.70;18.65;98886.56;4813760;29;20553;-83
2023/06/17 14:35:47;;;;;;;0.20;0.20;;;;;;;33.03;19.05;98871.44;4807162;29;20054;-83
2023/06/17 14:38:14;;;;;;;0.30;0.30;;;;;;;34.66;17.91;98890.22;4831994;29;20126;-87
2023/06/17 14:40:41;;;;;;;0.20;0.20;;;;;;;35.73;17.23;98895.00;4822506;29;20054;-84
2023/06/17 14:43:08;;;;;;;0.20;0.20;;;;;;;36.36;16.92;98882.63;4822496;29;20050;-84
2023/06/17 14:45:35;;;;;;;0.20;0.20;;;;;;;36.77;16.46;98867.66;4806456;29;20050;-84
2023/06/17 14:48:02;;;;;;;0.20;0.20;;;;;;;37.31;16.25;98882.44;4830030;29;20082;-84
2023/06/17 14:50:30;;;;;;;0.20;0.20;;;;;;;37.24;15.76;98871.28;4840633;29;20062;-84
2023/06/17 14:53:00;;;;;;;0.20;0.20;;;;;;;37.29;15.58;98884.09;4802436;29;20623;-86
2023/06/17 14:55:28;;;;;;;0.20;0.20;;;;;;;36.75;15.71;98864.47;4842788;29;20049;-86
2023/06/17 14:57:55;;;;;;;0.28;0.28;;;;;;;37.27;15.82;98883.72;4841764;29;20065;-84
2023/06/17 15:00:25;;;;;;;0.30;0.30;;;;;;;37.60;15.19;98881.94;4840641;29;20062;-85
2023/06/17 15:02:59;;;;;;;0.20;0.20;;;;;;;37.50;15.29;98872.47;4824489;29;20433;-86
2023/06/17 15:05:35;;;;;;;0.20;0.20;;;;;;;36.79;16.42;98876.44;4836404;29;20144;-85
2023/06/17 15:08:03;;;;;;;0.15;0.15;;;;;;;36.07;16.37;98887.81;4830171;29;20052;-90
2023/06/17 15:10:31;;;;;;;0.20;0.20;;;;;;;36.18;16.86;98892.09;4826699;29;20399;-88
2023/06/17 15:12:58;;;;;;;0.10;0.10;;;;;;;35.68;17.32;98880.59;4830534;29;20057;-87
2023/06/17 15:15:44;;;;;;;0.10;0.10;;;;;;;33.74;18.82;98886.56;4836651;29;20062;-79
2023/06/17 15:18:13;;;;;;;0.10;0.10;;;;;;;32.34;20.41;98887.22;4837279;29;20053;-82
2023/06/17 15:20:40;;;;;;;0.10;0.10;;;;;;;31.62;20.84;98874.06;4822033;29;20471;-83
2023/06/17 15:23:10;;;;;;;0.10;0.10;;;;;;;31.10;21.14;98871.28;4823043;29;20046;-87
2023/06/17 15:25:37;;;;;;;0.10;0.10;;;;;;;30.50;22.05;98894.56;4814899;29;20062;-87
2023/06/17 15:28:04;;;;;;;0.10;0.10;;;;;;;30.06;22.56;98891.63;4821693;29;20054;-87
2023/06/17 15:30:34;;;;;;;0.10;0.10;;;;;;;29.91;22.94;98898.97;4821948;29;20054;-83
2023/06/17 15:33:02;;;;;;;0.10;0.10;;;;;;;29.83;23.23;98897.25;4826104;29;20110;-88
2023/06/17 15:35:29;;;;;;;0.10;0.10;;;;;;;30.76;21.89;98888.06;4818784;29;20532;-85
2023/06/17 15:37:56;;;;;;;0.10;0.10;;;;;;;30.28;22.47;98896.28;4804222;29;20107;-84
2023/06/17 15:40:24;;;;;;;0.10;0.10;;;;;;;29.72;23.17;98897.91;4821938;29;20061;-85
2023/06/17 15:42:51;;;;;;;0.10;0.10;;;;;;;29.26;23.56;98897.19;4831726;29;20050;-85
2023/06/17 15:45:18;;;;;;;0.10;0.10;;;;;;;28.81;23.98;98895.97;4833967;29;20076;-84
2023/06/17 15:47:45;;;;;;;0.10;0.10;;;;;;;28.50;24.68;98895.81;4858270;29;20142;-85
2023/06/17 15:50:14;;;;;;;0.10;0.10;;;;;;;28.15;25.18;98883.97;4849753;29;20612;-87
2023/06/17 15:52:41;;;;;;;0.10;0.10;;;;;;;28.14;25.45;98899.03;4835877;29;20145;-86
2023/06/17 15:55:08;;;;;;;0.10;0.10;;;;;;;27.93;25.70;98904.88;4827295;29;20050;-87
2023/06/17 15:57:35;;;;;;;0.10;0.10;;;;;;;27.79;26.06;98897.03;4503333;29;9999748;-88
2023/06/17 16:00:03;;;;;;;0.10;0.10;;;;;;;27.77;26.20;98899.38;4838934;29;20058;-85
2023/06/17 16:02:38;;;;;;;0.10;0.10;;;;;;;27.85;26.17;98907.53;4845287;29;20065;-87
2023/06/17 16:05:06;;;;;;;0.10;0.10;;;;;;;27.80;26.00;98907.78;4809268;29;20049;-86
2023/06/17 16:07:33;;;;;;;0.10;0.10;;;;;;;27.69;26.14;98898.41;4787940;29;20103;-87
2023/06/17 16:10:00;;;;;;;0.10;0.10;;;;;;;27.59;26.43;98899.75;4837198;29;20513;-86
2023/06/17 16:12:33;;;;;;;0.10;0.10;;;;;;;27.46;26.97;98892.72;4821047;29;20046;-88
2023/06/17 16:15:00;;;;;;;0.10;0.10;;;;;;;27.37;26.82;98903.19;4836577;29;20110;-86
2023/06/17 16:17:30;;;;;;;0.10;0.10;;;;;;;27.12;26.87;98897.84;4833897;29;20057;-84
2023/06/17 16:19:59;;;;;;;0.10;0.10;;;;;;;26.99;27.56;98899.06;4836335;29;20081;-85
2023/06/17 16:22:28;;;;;;;0.10;0.10;;;;;;;26.97;27.57;98909.72;4821259;29;20413;-87
2023/06/17 16:24:55;;;;;;;0.10;0.10;;;;;;;26.78;28.01;98911.19;4822389;29;20069;-88
2023/06/17 16:27:22;;;;;;;0.10;0.10;;;;;;;26.51;28.30;98884.31;4822667;29;20062;-87
2023/06/17 16:29:50;;;;;;;0.10;0.10;;;;;;;26.46;28.19;98901.19;4839261;29;20053;-87
2023/06/17 16:32:17;;;;;;;0.10;0.10;;;;;;;26.44;28.60;98914.59;4815931;29;20065;-88
2023/06/17 16:34:44;;;;;;;0.10;0.10;;;;;;;26.28;28.86;98898.75;4817847;29;20544;-92
2023/06/17 16:37:11;;;;;;;0.10;0.10;;;;;;;26.12;29.05;98892.34;4778410;29;20057;-87
2023/06/17 16:39:41;;;;;;;0.10;0.10;;;;;;;26.21;29.32;98926.19;4787606;29;20526;-86
2023/06/17 16:42:08;;;;;;;0.20;0.20;;;;;;;26.04;29.30;98904.34;4822856;29;20068;-85